sensor_id;sensor_type;location;lat;lon;timestamp;P1;durP1;ratioP1;P2;durP2;ratioP2
60076;SDS011;45950;45.208;20.374;2022-08-19T00:01:36;7.88;;;6.15;;
60076;SDS011;45950;45.208;20.374;2022-08-19T00:04:04;6.25;;;5.63;;
60076;SDS011;45950;45.208;20.374;2022-08-19T00:06:32;10.05;;;6.20;;
60076;SDS011;45950;45.208;20.374;2022-08-19T00:09:02;7.68;;;5.88;;
60076;SDS011;45950;45.208;20.374;2022-08-19T00:11:29;7.95;;;5.65;;
60076;SDS011;45950;45.208;20.374;2022-08-19T00:13:56;7.80;;;6.63;;
60076;SDS011;45950;45.208;20.374;2022-08-19T00:16:23;9.68;;;7.05;;
60076;SDS011;45950;45.208;20.374;2022-08-19T00:18:50;9.68;;;6.70;;
60076;SDS011;45950;45.208;20.374;2022-08-19T00:21:16;9.38;;;6.82;;
60076;SDS011;45950;45.208;20.374;2022-08-19T00:23:43;9.02;;;7.57;;
60076;SDS011;45950;45.208;20.374;2022-08-19T00:26:11;8.70;;;7.35;;
60076;SDS011;45950;45.208;20.374;2022-08-19T00:28:38;10.25;;;8.13;;
60076;SDS011;45950;45.208;20.374;2022-08-19T00:31:05;9.40;;;7.20;;
60076;SDS011;45950;45.208;20.374;2022-08-19T00:33:32;11.75;;;8.05;;
60076;SDS011;45950;45.208;20.374;2022-08-19T00:35:59;9.95;;;7.25;;
60076;SDS011;45950;45.208;20.374;2022-08-19T00:38:26;11.60;;;8.02;;
60076;SDS011;45950;45.208;20.374;2022-08-19T00:40:53;9.10;;;7.68;;
60076;SDS011;45950;45.208;20.374;2022-08-19T00:43:22;8.48;;;7.65;;
60076;SDS011;45950;45.208;20.374;2022-08-19T00:45:49;12.57;;;8.35;;
60076;SDS011;45950;45.208;20.374;2022-08-19T00:48:16;8.25;;;7.45;;
60076;SDS011;45950;45.208;20.374;2022-08-19T00:50:43;12.95;;;8.63;;
60076;SDS011;45950;45.208;20.374;2022-08-19T00:53:11;11.27;;;9.65;;
60076;SDS011;45950;45.208;20.374;2022-08-19T00:55:40;11.82;;;8.93;;
60076;SDS011;45950;45.208;20.374;2022-08-19T00:58:10;12.65;;;9.70;;
60076;SDS011;45950;45.208;20.374;2022-08-19T01:00:39;12.43;;;8.70;;
60076;SDS011;45950;45.208;20.374;2022-08-19T01:03:07;12.02;;;9.07;;
60076;SDS011;45950;45.208;20.374;2022-08-19T01:05:34;12.02;;;9.88;;
60076;SDS011;45950;45.208;20.374;2022-08-19T01:08:02;15.18;;;9.60;;
60076;SDS011;45950;45.208;20.374;2022-08-19T01:10:30;13.18;;;9.52;;
60076;SDS011;45950;45.208;20.374;2022-08-19T01:12:58;10.43;;;9.43;;
60076;SDS011;45950;45.208;20.374;2022-08-19T01:15:26;11.75;;;9.18;;
60076;SDS011;45950;45.208;20.374;2022-08-19T01:17:55;12.35;;;8.80;;
60076;SDS011;45950;45.208;20.374;2022-08-19T01:20:23;11.98;;;8.90;;
60076;SDS011;45950;45.208;20.374;2022-08-19T01:22:52;12.82;;;10.05;;
60076;SDS011;45950;45.208;20.374;2022-08-19T01:25:24;13.07;;;9.38;;
60076;SDS011;45950;45.208;20.374;2022-08-19T01:27:53;14.48;;;9.65;;
60076;SDS011;45950;45.208;20.374;2022-08-19T01:30:24;13.75;;;10.10;;
60076;SDS011;45950;45.208;20.374;2022-08-19T01:32:52;12.23;;;9.65;;
60076;SDS011;45950;45.208;20.374;2022-08-19T01:35:19;10.20;;;9.18;;
60076;SDS011;45950;45.208;20.374;2022-08-19T01:37:47;13.75;;;8.98;;
60076;SDS011;45950;45.208;20.374;2022-08-19T01:40:16;10.57;;;9.18;;
60076;SDS011;45950;45.208;20.374;2022-08-19T01:42:45;13.00;;;8.50;;
60076;SDS011;45950;45.208;20.374;2022-08-19T01:45:12;11.45;;;9.00;;
60076;SDS011;45950;45.208;20.374;2022-08-19T01:47:39;10.90;;;8.23;;
60076;SDS011;45950;45.208;20.374;2022-08-19T01:50:07;9.45;;;8.48;;
60076;SDS011;45950;45.208;20.374;2022-08-19T01:52:35;13.68;;;9.00;;
60076;SDS011;45950;45.208;20.374;2022-08-19T01:55:02;16.60;;;8.73;;
60076;SDS011;45950;45.208;20.374;2022-08-19T01:57:30;13.10;;;9.05;;
60076;SDS011;45950;45.208;20.374;2022-08-19T01:59:57;11.52;;;8.75;;
60076;SDS011;45950;45.208;20.374;2022-08-19T02:02:24;10.13;;;8.82;;
60076;SDS011;45950;45.208;20.374;2022-08-19T02:04:51;14.57;;;9.55;;
60076;SDS011;45950;45.208;20.374;2022-08-19T02:07:18;12.23;;;9.40;;
60076;SDS011;45950;45.208;20.374;2022-08-19T02:09:45;10.25;;;7.80;;
60076;SDS011;45950;45.208;20.374;2022-08-19T02:12:12;9.52;;;7.63;;
60076;SDS011;45950;45.208;20.374;2022-08-19T02:14:40;10.10;;;8.48;;
60076;SDS011;45950;45.208;20.374;2022-08-19T02:17:07;10.70;;;7.47;;
60076;SDS011;45950;45.208;20.374;2022-08-19T02:19:34;10.40;;;8.10;;
60076;SDS011;45950;45.208;20.374;2022-08-19T02:22:00;10.10;;;8.07;;
60076;SDS011;45950;45.208;20.374;2022-08-19T02:24:27;14.15;;;9.10;;
60076;SDS011;45950;45.208;20.374;2022-08-19T02:26:54;11.20;;;8.55;;
60076;SDS011;45950;45.208;20.374;2022-08-19T02:29:20;10.90;;;8.15;;
60076;SDS011;45950;45.208;20.374;2022-08-19T02:31:49;10.27;;;7.60;;
60076;SDS011;45950;45.208;20.374;2022-08-19T02:34:16;11.90;;;7.65;;
60076;SDS011;45950;45.208;20.374;2022-08-19T02:36:43;9.43;;;8.13;;
60076;SDS011;45950;45.208;20.374;2022-08-19T02:39:10;9.30;;;7.90;;
60076;SDS011;45950;45.208;20.374;2022-08-19T02:41:36;11.90;;;8.15;;
60076;SDS011;45950;45.208;20.374;2022-08-19T02:44:02;12.13;;;8.02;;
60076;SDS011;45950;45.208;20.374;2022-08-19T02:46:30;10.55;;;8.27;;
60076;SDS011;45950;45.208;20.374;2022-08-19T02:48:59;11.85;;;8.02;;
60076;SDS011;45950;45.208;20.374;2022-08-19T02:51:30;15.23;;;9.00;;
60076;SDS011;45950;45.208;20.374;2022-08-19T02:53:57;10.27;;;8.35;;
60076;SDS011;45950;45.208;20.374;2022-08-19T02:56:25;12.05;;;7.88;;
60076;SDS011;45950;45.208;20.374;2022-08-19T02:58:52;8.88;;;7.13;;
60076;SDS011;45950;45.208;20.374;2022-08-19T03:01:19;12.77;;;8.35;;
60076;SDS011;45950;45.208;20.374;2022-08-19T03:03:46;10.55;;;8.18;;
60076;SDS011;45950;45.208;20.374;2022-08-19T03:06:15;9.07;;;7.95;;
60076;SDS011;45950;45.208;20.374;2022-08-19T03:08:43;11.00;;;7.80;;
60076;SDS011;45950;45.208;20.374;2022-08-19T03:11:14;9.80;;;7.25;;
60076;SDS011;45950;45.208;20.374;2022-08-19T03:13:42;8.95;;;7.50;;
60076;SDS011;45950;45.208;20.374;2022-08-19T03:16:09;12.35;;;7.90;;
60076;SDS011;45950;45.208;20.374;2022-08-19T03:18:36;8.70;;;7.60;;
60076;SDS011;45950;45.208;20.374;2022-08-19T03:21:03;10.07;;;7.53;;
60076;SDS011;45950;45.208;20.374;2022-08-19T03:23:31;8.77;;;7.07;;
60076;SDS011;45950;45.208;20.374;2022-08-19T03:25:58;10.32;;;7.55;;
60076;SDS011;45950;45.208;20.374;2022-08-19T03:28:25;8.88;;;7.80;;
60076;SDS011;45950;45.208;20.374;2022-08-19T03:30:56;8.80;;;7.10;;
60076;SDS011;45950;45.208;20.374;2022-08-19T03:33:24;10.93;;;7.18;;
60076;SDS011;45950;45.208;20.374;2022-08-19T03:36:01;10.38;;;7.32;;
60076;SDS011;45950;45.208;20.374;2022-08-19T03:38:27;10.93;;;8.63;;
60076;SDS011;45950;45.208;20.374;2022-08-19T03:40:56;9.40;;;7.50;;
60076;SDS011;45950;45.208;20.374;2022-08-19T03:43:22;8.27;;;6.95;;
60076;SDS011;45950;45.208;20.374;2022-08-19T03:45:59;10.93;;;7.50;;
60076;SDS011;45950;45.208;20.374;2022-08-19T03:48:25;9.80;;;7.90;;
60076;SDS011;45950;45.208;20.374;2022-08-19T03:50:52;10.80;;;7.75;;
60076;SDS011;45950;45.208;20.374;2022-08-19T03:53:19;10.95;;;8.32;;
60076;SDS011;45950;45.208;20.374;2022-08-19T03:55:46;9.98;;;7.20;;
60076;SDS011;45950;45.208;20.374;2022-08-19T03:58:14;8.77;;;7.15;;
60076;SDS011;45950;45.208;20.374;2022-08-19T04:00:41;9.65;;;7.13;;
60076;SDS011;45950;45.208;20.374;2022-08-19T04:03:08;9.05;;;6.93;;
60076;SDS011;45950;45.208;20.374;2022-08-19T04:05:35;10.80;;;6.85;;
60076;SDS011;45950;45.208;20.374;2022-08-19T04:08:02;8.55;;;6.78;;
60076;SDS011;45950;45.208;20.374;2022-08-19T04:10:30;8.73;;;6.75;;
60076;SDS011;45950;45.208;20.374;2022-08-19T04:12:57;9.10;;;7.03;;
60076;SDS011;45950;45.208;20.374;2022-08-19T04:15:25;9.40;;;7.10;;
60076;SDS011;45950;45.208;20.374;2022-08-19T04:17:53;8.50;;;6.85;;
60076;SDS011;45950;45.208;20.374;2022-08-19T04:20:20;9.20;;;6.28;;
60076;SDS011;45950;45.208;20.374;2022-08-19T04:22:47;7.93;;;6.18;;
60076;SDS011;45950;45.208;20.374;2022-08-19T04:25:14;7.72;;;6.75;;
60076;SDS011;45950;45.208;20.374;2022-08-19T04:27:40;8.48;;;6.82;;
60076;SDS011;45950;45.208;20.374;2022-08-19T04:30:11;6.90;;;5.93;;
60076;SDS011;45950;45.208;20.374;2022-08-19T04:32:40;7.03;;;6.32;;
60076;SDS011;45950;45.208;20.374;2022-08-19T04:35:08;7.13;;;6.43;;
60076;SDS011;45950;45.208;20.374;2022-08-19T04:37:35;13.52;;;7.13;;
60076;SDS011;45950;45.208;20.374;2022-08-19T04:40:04;7.95;;;5.60;;
60076;SDS011;45950;45.208;20.374;2022-08-19T04:42:48;7.72;;;6.38;;
60076;SDS011;45950;45.208;20.374;2022-08-19T04:45:15;7.60;;;6.78;;
60076;SDS011;45950;45.208;20.374;2022-08-19T04:47:43;7.25;;;6.10;;
60076;SDS011;45950;45.208;20.374;2022-08-19T04:50:10;9.68;;;7.20;;
60076;SDS011;45950;45.208;20.374;2022-08-19T04:52:37;9.43;;;7.13;;
60076;SDS011;45950;45.208;20.374;2022-08-19T04:55:08;9.07;;;6.75;;
60076;SDS011;45950;45.208;20.374;2022-08-19T04:57:35;9.80;;;5.90;;
60076;SDS011;45950;45.208;20.374;2022-08-19T05:00:06;8.10;;;6.88;;
60076;SDS011;45950;45.208;20.374;2022-08-19T05:02:33;11.55;;;6.82;;
60076;SDS011;45950;45.208;20.374;2022-08-19T05:05:01;10.27;;;6.90;;
60076;SDS011;45950;45.208;20.374;2022-08-19T05:07:28;9.23;;;7.18;;
60076;SDS011;45950;45.208;20.374;2022-08-19T05:09:56;8.32;;;5.63;;
60076;SDS011;45950;45.208;20.374;2022-08-19T05:12:22;9.13;;;5.90;;
60076;SDS011;45950;45.208;20.374;2022-08-19T05:14:49;7.07;;;5.93;;
60076;SDS011;45950;45.208;20.374;2022-08-19T05:17:17;10.23;;;6.97;;
60076;SDS011;45950;45.208;20.374;2022-08-19T05:19:43;9.80;;;6.13;;
60076;SDS011;45950;45.208;20.374;2022-08-19T05:22:29;7.88;;;6.28;;
60076;SDS011;45950;45.208;20.374;2022-08-19T05:25:01;8.43;;;5.80;;
60076;SDS011;45950;45.208;20.374;2022-08-19T05:27:28;8.00;;;5.53;;
60076;SDS011;45950;45.208;20.374;2022-08-19T05:29:55;5.75;;;4.90;;
60076;SDS011;45950;45.208;20.374;2022-08-19T05:32:21;9.00;;;5.78;;
60076;SDS011;45950;45.208;20.374;2022-08-19T05:34:48;6.57;;;4.97;;
60076;SDS011;45950;45.208;20.374;2022-08-19T05:37:15;7.63;;;5.90;;
60076;SDS011;45950;45.208;20.374;2022-08-19T05:39:43;7.40;;;5.47;;
60076;SDS011;45950;45.208;20.374;2022-08-19T05:42:10;8.05;;;5.85;;
60076;SDS011;45950;45.208;20.374;2022-08-19T05:44:38;7.90;;;5.97;;
60076;SDS011;45950;45.208;20.374;2022-08-19T05:47:08;6.97;;;4.70;;
60076;SDS011;45950;45.208;20.374;2022-08-19T05:49:35;7.95;;;5.10;;
60076;SDS011;45950;45.208;20.374;2022-08-19T05:52:02;9.68;;;5.43;;
60076;SDS011;45950;45.208;20.374;2022-08-19T05:54:30;8.20;;;5.25;;
60076;SDS011;45950;45.208;20.374;2022-08-19T05:56:58;6.35;;;5.03;;
60076;SDS011;45950;45.208;20.374;2022-08-19T05:59:24;7.60;;;5.90;;
60076;SDS011;45950;45.208;20.374;2022-08-19T06:01:51;8.02;;;5.60;;
60076;SDS011;45950;45.208;20.374;2022-08-19T06:04:19;7.88;;;5.75;;
60076;SDS011;45950;45.208;20.374;2022-08-19T06:06:46;6.45;;;5.28;;
60076;SDS011;45950;45.208;20.374;2022-08-19T06:09:13;6.95;;;5.20;;
60076;SDS011;45950;45.208;20.374;2022-08-19T06:11:41;9.90;;;5.85;;
60076;SDS011;45950;45.208;20.374;2022-08-19T06:14:11;5.65;;;4.93;;
60076;SDS011;45950;45.208;20.374;2022-08-19T06:16:39;6.55;;;4.97;;
60076;SDS011;45950;45.208;20.374;2022-08-19T06:19:07;7.28;;;4.53;;
60076;SDS011;45950;45.208;20.374;2022-08-19T06:21:35;5.90;;;5.03;;
60076;SDS011;45950;45.208;20.374;2022-08-19T06:24:04;8.68;;;5.22;;
60076;SDS011;45950;45.208;20.374;2022-08-19T06:26:32;6.78;;;4.63;;
60076;SDS011;45950;45.208;20.374;2022-08-19T06:28:59;6.53;;;4.50;;
60076;SDS011;45950;45.208;20.374;2022-08-19T06:31:28;5.95;;;4.30;;
60076;SDS011;45950;45.208;20.374;2022-08-19T06:33:56;7.90;;;5.00;;
60076;SDS011;45950;45.208;20.374;2022-08-19T06:36:23;7.90;;;4.53;;
60076;SDS011;45950;45.208;20.374;2022-08-19T06:38:52;5.40;;;4.43;;
60076;SDS011;45950;45.208;20.374;2022-08-19T06:41:18;8.48;;;4.43;;
60076;SDS011;45950;45.208;20.374;2022-08-19T06:43:45;6.00;;;4.50;;
60076;SDS011;45950;45.208;20.374;2022-08-19T06:46:14;9.15;;;4.43;;
60076;SDS011;45950;45.208;20.374;2022-08-19T06:48:42;5.60;;;4.90;;
60076;SDS011;45950;45.208;20.374;2022-08-19T06:51:09;7.95;;;5.55;;
60076;SDS011;45950;45.208;20.374;2022-08-19T06:53:36;10.02;;;5.53;;
60076;SDS011;45950;45.208;20.374;2022-08-19T06:56:04;7.15;;;4.80;;
60076;SDS011;45950;45.208;20.374;2022-08-19T06:58:31;6.00;;;5.35;;
60076;SDS011;45950;45.208;20.374;2022-08-19T07:00:59;6.07;;;4.18;;
60076;SDS011;45950;45.208;20.374;2022-08-19T07:03:28;8.02;;;5.18;;
60076;SDS011;45950;45.208;20.374;2022-08-19T07:05:57;5.70;;;4.53;;
60076;SDS011;45950;45.208;20.374;2022-08-19T07:08:24;6.55;;;4.47;;
60076;SDS011;45950;45.208;20.374;2022-08-19T07:10:52;5.78;;;3.83;;
60076;SDS011;45950;45.208;20.374;2022-08-19T07:13:19;4.78;;;3.60;;
60076;SDS011;45950;45.208;20.374;2022-08-19T07:15:46;9.63;;;4.60;;
60076;SDS011;45950;45.208;20.374;2022-08-19T07:18:15;7.32;;;3.92;;
60076;SDS011;45950;45.208;20.374;2022-08-19T07:20:42;8.55;;;4.28;;
60076;SDS011;45950;45.208;20.374;2022-08-19T07:23:10;5.47;;;4.10;;
60076;SDS011;45950;45.208;20.374;2022-08-19T07:25:37;5.55;;;3.97;;
60076;SDS011;45950;45.208;20.374;2022-08-19T07:28:04;5.65;;;4.10;;
60076;SDS011;45950;45.208;20.374;2022-08-19T07:30:32;5.63;;;3.72;;
60076;SDS011;45950;45.208;20.374;2022-08-19T07:32:59;6.15;;;4.18;;
60076;SDS011;45950;45.208;20.374;2022-08-19T07:35:26;5.35;;;4.07;;
60076;SDS011;45950;45.208;20.374;2022-08-19T07:37:53;5.95;;;4.05;;
60076;SDS011;45950;45.208;20.374;2022-08-19T07:40:21;5.63;;;3.95;;
60076;SDS011;45950;45.208;20.374;2022-08-19T07:42:48;5.05;;;4.10;;
60076;SDS011;45950;45.208;20.374;2022-08-19T07:45:15;7.50;;;4.68;;
60076;SDS011;45950;45.208;20.374;2022-08-19T07:47:42;5.60;;;4.70;;
60076;SDS011;45950;45.208;20.374;2022-08-19T07:50:09;5.90;;;4.18;;
60076;SDS011;45950;45.208;20.374;2022-08-19T07:52:36;12.45;;;4.28;;
60076;SDS011;45950;45.208;20.374;2022-08-19T07:55:05;5.05;;;3.60;;
60076;SDS011;45950;45.208;20.374;2022-08-19T07:57:33;5.03;;;4.07;;
60076;SDS011;45950;45.208;20.374;2022-08-19T08:00:00;5.38;;;3.83;;
60076;SDS011;45950;45.208;20.374;2022-08-19T08:02:27;5.97;;;3.53;;
60076;SDS011;45950;45.208;20.374;2022-08-19T08:04:54;7.28;;;3.75;;
60076;SDS011;45950;45.208;20.374;2022-08-19T08:07:38;7.55;;;4.40;;
60076;SDS011;45950;45.208;20.374;2022-08-19T08:12:50;4.53;;;3.78;;
60076;SDS011;45950;45.208;20.374;2022-08-19T08:15:16;4.97;;;3.92;;
60076;SDS011;45950;45.208;20.374;2022-08-19T08:17:45;7.03;;;3.80;;
60076;SDS011;45950;45.208;20.374;2022-08-19T08:20:13;4.97;;;3.88;;
60076;SDS011;45950;45.208;20.374;2022-08-19T08:22:42;7.05;;;4.03;;
60076;SDS011;45950;45.208;20.374;2022-08-19T08:25:26;5.78;;;3.40;;
60076;SDS011;45950;45.208;20.374;2022-08-19T08:27:54;6.45;;;3.35;;
60076;SDS011;45950;45.208;20.374;2022-08-19T08:30:25;4.10;;;3.58;;
60076;SDS011;45950;45.208;20.374;2022-08-19T08:32:53;7.20;;;3.63;;
60076;SDS011;45950;45.208;20.374;2022-08-19T08:35:20;7.35;;;3.50;;
60076;SDS011;45950;45.208;20.374;2022-08-19T08:37:48;5.60;;;4.00;;
60076;SDS011;45950;45.208;20.374;2022-08-19T08:40:16;7.18;;;4.38;;
60076;SDS011;45950;45.208;20.374;2022-08-19T08:42:46;5.50;;;3.55;;
60076;SDS011;45950;45.208;20.374;2022-08-19T08:45:16;6.47;;;4.10;;
60076;SDS011;45950;45.208;20.374;2022-08-19T08:47:44;5.05;;;4.05;;
60076;SDS011;45950;45.208;20.374;2022-08-19T08:50:13;5.13;;;3.60;;
60076;SDS011;45950;45.208;20.374;2022-08-19T08:52:43;6.75;;;4.13;;
60076;SDS011;45950;45.208;20.374;2022-08-19T08:55:12;8.38;;;4.35;;
60076;SDS011;45950;45.208;20.374;2022-08-19T08:57:41;8.50;;;4.70;;
60076;SDS011;45950;45.208;20.374;2022-08-19T09:00:10;6.68;;;3.92;;
60076;SDS011;45950;45.208;20.374;2022-08-19T09:02:39;5.45;;;3.67;;
60076;SDS011;45950;45.208;20.374;2022-08-19T09:05:06;6.78;;;4.35;;
60076;SDS011;45950;45.208;20.374;2022-08-19T09:07:39;5.13;;;4.13;;
60076;SDS011;45950;45.208;20.374;2022-08-19T09:10:10;5.25;;;4.60;;
60076;SDS011;45950;45.208;20.374;2022-08-19T09:12:42;6.53;;;3.90;;
60076;SDS011;45950;45.208;20.374;2022-08-19T09:15:12;4.72;;;3.83;;
60076;SDS011;45950;45.208;20.374;2022-08-19T09:17:40;9.60;;;3.63;;
60076;SDS011;45950;45.208;20.374;2022-08-19T09:20:13;6.28;;;4.38;;
60076;SDS011;45950;45.208;20.374;2022-08-19T09:22:41;5.88;;;4.40;;
60076;SDS011;45950;45.208;20.374;2022-08-19T09:25:09;7.95;;;3.70;;
60076;SDS011;45950;45.208;20.374;2022-08-19T09:27:37;5.43;;;3.90;;
60076;SDS011;45950;45.208;20.374;2022-08-19T09:30:04;5.82;;;4.03;;
60076;SDS011;45950;45.208;20.374;2022-08-19T09:32:31;7.22;;;4.53;;
60076;SDS011;45950;45.208;20.374;2022-08-19T09:35:00;5.97;;;4.40;;
60076;SDS011;45950;45.208;20.374;2022-08-19T09:37:27;5.18;;;4.32;;
60076;SDS011;45950;45.208;20.374;2022-08-19T09:39:54;7.13;;;4.03;;
60076;SDS011;45950;45.208;20.374;2022-08-19T09:42:21;5.13;;;4.00;;
60076;SDS011;45950;45.208;20.374;2022-08-19T09:44:47;5.72;;;4.40;;
60076;SDS011;45950;45.208;20.374;2022-08-19T09:47:14;5.80;;;3.92;;
60076;SDS011;45950;45.208;20.374;2022-08-19T09:49:41;6.95;;;3.97;;
60076;SDS011;45950;45.208;20.374;2022-08-19T09:52:09;4.82;;;3.55;;
60076;SDS011;45950;45.208;20.374;2022-08-19T09:54:37;6.25;;;3.50;;
60076;SDS011;45950;45.208;20.374;2022-08-19T09:57:04;6.07;;;4.03;;
60076;SDS011;45950;45.208;20.374;2022-08-19T09:59:31;5.65;;;3.63;;
60076;SDS011;45950;45.208;20.374;2022-08-19T10:01:57;5.10;;;4.00;;
60076;SDS011;45950;45.208;20.374;2022-08-19T10:04:24;5.63;;;4.75;;
60076;SDS011;45950;45.208;20.374;2022-08-19T10:07:12;7.65;;;4.18;;
60076;SDS011;45950;45.208;20.374;2022-08-19T10:09:39;7.35;;;3.80;;
60076;SDS011;45950;45.208;20.374;2022-08-19T10:12:06;9.80;;;5.00;;
60076;SDS011;45950;45.208;20.374;2022-08-19T10:14:33;5.15;;;4.07;;
60076;SDS011;45950;45.208;20.374;2022-08-19T10:17:00;5.78;;;3.55;;
60076;SDS011;45950;45.208;20.374;2022-08-19T10:19:27;4.60;;;3.40;;
60076;SDS011;45950;45.208;20.374;2022-08-19T10:21:57;4.85;;;3.65;;
60076;SDS011;45950;45.208;20.374;2022-08-19T10:24:25;7.45;;;3.42;;
60076;SDS011;45950;45.208;20.374;2022-08-19T10:26:52;8.40;;;3.90;;
60076;SDS011;45950;45.208;20.374;2022-08-19T10:29:19;5.50;;;3.40;;
60076;SDS011;45950;45.208;20.374;2022-08-19T10:31:46;10.45;;;4.07;;
60076;SDS011;45950;45.208;20.374;2022-08-19T10:34:13;8.05;;;4.53;;
60076;SDS011;45950;45.208;20.374;2022-08-19T10:36:40;8.82;;;4.25;;
60076;SDS011;45950;45.208;20.374;2022-08-19T10:39:07;8.35;;;4.13;;
60076;SDS011;45950;45.208;20.374;2022-08-19T10:41:37;5.78;;;3.58;;
60076;SDS011;45950;45.208;20.374;2022-08-19T10:44:05;6.10;;;4.90;;
60076;SDS011;45950;45.208;20.374;2022-08-19T10:46:32;8.13;;;4.40;;
60076;SDS011;45950;45.208;20.374;2022-08-19T10:49:00;7.43;;;3.42;;
60076;SDS011;45950;45.208;20.374;2022-08-19T10:51:27;9.63;;;4.43;;
60076;SDS011;45950;45.208;20.374;2022-08-19T10:54:11;6.60;;;3.28;;
60076;SDS011;45950;45.208;20.374;2022-08-19T10:56:39;5.93;;;3.65;;
60076;SDS011;45950;45.208;20.374;2022-08-19T10:59:18;9.80;;;4.00;;
60076;SDS011;45950;45.208;20.374;2022-08-19T11:01:46;7.38;;;3.58;;
60076;SDS011;45950;45.208;20.374;2022-08-19T11:04:12;5.63;;;3.70;;
60076;SDS011;45950;45.208;20.374;2022-08-19T11:06:42;7.28;;;4.07;;
60076;SDS011;45950;45.208;20.374;2022-08-19T11:09:13;7.80;;;3.50;;
60076;SDS011;45950;45.208;20.374;2022-08-19T11:11:41;6.70;;;3.97;;
60076;SDS011;45950;45.208;20.374;2022-08-19T11:14:09;7.63;;;3.42;;
60076;SDS011;45950;45.208;20.374;2022-08-19T11:16:36;5.10;;;3.42;;
60076;SDS011;45950;45.208;20.374;2022-08-19T11:19:04;6.95;;;3.15;;
60076;SDS011;45950;45.208;20.374;2022-08-19T11:21:33;5.88;;;2.80;;
60076;SDS011;45950;45.208;20.374;2022-08-19T11:24:01;6.18;;;3.53;;
60076;SDS011;45950;45.208;20.374;2022-08-19T11:26:29;6.00;;;2.92;;
60076;SDS011;45950;45.208;20.374;2022-08-19T11:28:57;5.60;;;3.33;;
60076;SDS011;45950;45.208;20.374;2022-08-19T11:31:25;6.47;;;3.35;;
60076;SDS011;45950;45.208;20.374;2022-08-19T11:33:52;7.68;;;3.60;;
60076;SDS011;45950;45.208;20.374;2022-08-19T11:36:19;6.18;;;3.80;;
60076;SDS011;45950;45.208;20.374;2022-08-19T11:38:47;5.72;;;3.30;;
60076;SDS011;45950;45.208;20.374;2022-08-19T11:41:14;6.32;;;3.38;;
60076;SDS011;45950;45.208;20.374;2022-08-19T11:43:41;4.53;;;2.78;;
60076;SDS011;45950;45.208;20.374;2022-08-19T11:46:10;6.60;;;3.50;;
60076;SDS011;45950;45.208;20.374;2022-08-19T11:48:38;7.45;;;3.25;;
60076;SDS011;45950;45.208;20.374;2022-08-19T11:51:05;5.95;;;3.60;;
60076;SDS011;45950;45.208;20.374;2022-08-19T11:53:34;6.00;;;3.33;;
60076;SDS011;45950;45.208;20.374;2022-08-19T11:56:01;6.65;;;3.13;;
60076;SDS011;45950;45.208;20.374;2022-08-19T11:58:28;8.27;;;2.83;;
60076;SDS011;45950;45.208;20.374;2022-08-19T12:00:55;4.50;;;3.47;;
60076;SDS011;45950;45.208;20.374;2022-08-19T12:03:23;4.95;;;3.15;;
60076;SDS011;45950;45.208;20.374;2022-08-19T12:05:50;7.53;;;3.22;;
60076;SDS011;45950;45.208;20.374;2022-08-19T12:08:17;6.90;;;4.10;;
60076;SDS011;45950;45.208;20.374;2022-08-19T12:10:44;5.13;;;3.40;;
60076;SDS011;45950;45.208;20.374;2022-08-19T12:13:11;6.15;;;3.17;;
60076;SDS011;45950;45.208;20.374;2022-08-19T12:15:39;6.78;;;3.10;;
60076;SDS011;45950;45.208;20.374;2022-08-19T12:18:07;6.88;;;3.13;;
60076;SDS011;45950;45.208;20.374;2022-08-19T12:20:35;4.78;;;2.97;;
60076;SDS011;45950;45.208;20.374;2022-08-19T12:23:02;9.35;;;3.33;;
60076;SDS011;45950;45.208;20.374;2022-08-19T12:25:29;7.00;;;3.13;;
60076;SDS011;45950;45.208;20.374;2022-08-19T12:27:56;4.65;;;3.22;;
60076;SDS011;45950;45.208;20.374;2022-08-19T12:30:23;5.78;;;4.07;;
60076;SDS011;45950;45.208;20.374;2022-08-19T12:32:50;10.30;;;3.88;;
60076;SDS011;45950;45.208;20.374;2022-08-19T12:35:17;5.47;;;3.00;;
60076;SDS011;45950;45.208;20.374;2022-08-19T12:37:46;5.72;;;3.00;;
60076;SDS011;45950;45.208;20.374;2022-08-19T12:40:14;6.95;;;3.47;;
60076;SDS011;45950;45.208;20.374;2022-08-19T12:42:41;5.97;;;3.25;;
60076;SDS011;45950;45.208;20.374;2022-08-19T12:45:08;8.00;;;6.00;;
60076;SDS011;45950;45.208;20.374;2022-08-19T12:47:35;8.27;;;5.47;;
60076;SDS011;45950;45.208;20.374;2022-08-19T12:50:02;5.82;;;3.75;;
60076;SDS011;45950;45.208;20.374;2022-08-19T12:52:29;6.53;;;4.18;;
60076;SDS011;45950;45.208;20.374;2022-08-19T12:54:57;9.00;;;4.13;;
60076;SDS011;45950;45.208;20.374;2022-08-19T12:57:25;6.88;;;3.38;;
60076;SDS011;45950;45.208;20.374;2022-08-19T12:59:52;7.47;;;3.20;;
60076;SDS011;45950;45.208;20.374;2022-08-19T13:02:19;6.38;;;3.35;;
60076;SDS011;45950;45.208;20.374;2022-08-19T13:04:47;9.98;;;5.95;;
60076;SDS011;45950;45.208;20.374;2022-08-19T13:07:14;8.25;;;4.55;;
60076;SDS011;45950;45.208;20.374;2022-08-19T13:09:41;6.18;;;3.58;;
60076;SDS011;45950;45.208;20.374;2022-08-19T13:12:09;6.95;;;3.15;;
60076;SDS011;45950;45.208;20.374;2022-08-19T13:14:38;5.00;;;3.03;;
60076;SDS011;45950;45.208;20.374;2022-08-19T13:17:05;6.80;;;3.10;;
60076;SDS011;45950;45.208;20.374;2022-08-19T13:19:32;7.82;;;3.30;;
60076;SDS011;45950;45.208;20.374;2022-08-19T13:21:58;6.30;;;3.53;;
60076;SDS011;45950;45.208;20.374;2022-08-19T13:24:25;7.35;;;3.40;;
60076;SDS011;45950;45.208;20.374;2022-08-19T13:26:52;5.78;;;3.53;;
60076;SDS011;45950;45.208;20.374;2022-08-19T13:29:20;7.05;;;2.90;;
60076;SDS011;45950;45.208;20.374;2022-08-19T13:32:04;6.88;;;2.92;;
60076;SDS011;45950;45.208;20.374;2022-08-19T13:34:48;6.57;;;2.97;;
60076;SDS011;45950;45.208;20.374;2022-08-19T13:37:15;4.90;;;3.03;;
60076;SDS011;45950;45.208;20.374;2022-08-19T13:40:01;16.00;;;3.78;;
60076;SDS011;45950;45.208;20.374;2022-08-19T13:42:28;8.00;;;3.42;;
60076;SDS011;45950;45.208;20.374;2022-08-19T13:44:58;4.25;;;2.83;;
60076;SDS011;45950;45.208;20.374;2022-08-19T13:47:24;7.70;;;2.83;;
60076;SDS011;45950;45.208;20.374;2022-08-19T13:49:51;5.22;;;2.80;;
60076;SDS011;45950;45.208;20.374;2022-08-19T13:52:18;8.30;;;3.47;;
60076;SDS011;45950;45.208;20.374;2022-08-19T13:54:45;5.47;;;2.92;;
60076;SDS011;45950;45.208;20.374;2022-08-19T13:57:12;7.70;;;3.05;;
60076;SDS011;45950;45.208;20.374;2022-08-19T13:59:39;7.50;;;3.40;;
60076;SDS011;45950;45.208;20.374;2022-08-19T14:02:08;5.20;;;3.00;;
60076;SDS011;45950;45.208;20.374;2022-08-19T14:04:35;9.77;;;3.58;;
60076;SDS011;45950;45.208;20.374;2022-08-19T14:07:02;7.82;;;3.45;;
60076;SDS011;45950;45.208;20.374;2022-08-19T14:09:29;5.15;;;2.88;;
60076;SDS011;45950;45.208;20.374;2022-08-19T14:11:56;5.32;;;3.00;;
60076;SDS011;45950;45.208;20.374;2022-08-19T14:14:23;10.38;;;2.80;;
60076;SDS011;45950;45.208;20.374;2022-08-19T14:16:49;4.85;;;3.05;;
60076;SDS011;45950;45.208;20.374;2022-08-19T14:19:18;5.68;;;2.92;;
60076;SDS011;45950;45.208;20.374;2022-08-19T14:21:45;8.27;;;3.40;;
60076;SDS011;45950;45.208;20.374;2022-08-19T14:24:13;5.13;;;2.53;;
60076;SDS011;45950;45.208;20.374;2022-08-19T14:26:39;6.00;;;2.63;;
60076;SDS011;45950;45.208;20.374;2022-08-19T14:29:06;5.07;;;2.83;;
60076;SDS011;45950;45.208;20.374;2022-08-19T14:31:33;5.13;;;3.38;;
60076;SDS011;45950;45.208;20.374;2022-08-19T14:33:59;5.32;;;3.28;;
60076;SDS011;45950;45.208;20.374;2022-08-19T14:36:27;6.25;;;3.30;;
60076;SDS011;45950;45.208;20.374;2022-08-19T14:38:55;7.60;;;3.55;;